Hlavní strana
METAR-TAF:

METAR-TAF

Letiště :

Lagos, Nigérie

zeměpisná šířka: 06-35N, zeměpisná délka: 003-20E, výška: 40 m

Aktuální stav počasí

Zpráva byla vytvořena před 42 minutami, v 01:00 UTC
Bezvětří
Teplota 27°C
Vlhkost vzduchu 89%
Tlak 1013 hPa
Viditelnost: 7000 m

METAR: DNMM 190100Z 00000KT 7000 NSC 27/25 Q1013 NOSIG

Čas: 02:42 (01:42 UTC)

Předpověď počasí

Zpráva byla vytvořena před 2 hodinami a 42 minutami, v 23:00 UTC
Předpověď platná od 19 v 00 UTC do 20 v 06 UTC
vítr z různých směrů 2 kt
Dočasný
od 19 v 03 UTC do 19 v 10 UTC
Viditelnost: 5000 m
Polojasno ve výšce 1000 ft
zákal
Pravděpodobnost 30%
od 19 v 05 UTC do 19 v 07 UTC
Severoseverozápadní vítr 6 kt
Viditelnost: 1500 m
kouřmo
Změna
od 19 v 08 UTC do 19 v 10 UTC
Východoseverovýchodní vítr 10 kt
Viditelnost: 4000 m
Oblačno až skoro zataženo ve výšce 1300 ft
zákal

TAF: DNMM 182300Z 1900/2006 VRB02KT 70000 NSC TEMPO 1903/1910 5000 HZ SCT010 PROB30 1905/1907 33006KT 1500 BR BECMG 1908/1910 07010KT 4000 HZ BKN013

Stav a předpovědi počasí z více než 4 000 letišť (zprávy METAR a TAF).

Červené a žluté tečky na mapě představují dostupné meteorologické stanice.

Když kurzor umístíte na tečku, zobrazí se název stanice.

Pak kliknutím zobrazíte stav a předpověď počasí.

Chcete-li změnit mapu, kliknutím na zelené tlačítko se znaménkem +mapu přiblížíte, kliknutím na zelené tlačítko se znaménkem – mapu oddálíte a kliknutím na zelené šipky přejdete na sousední mapy.


METAR-TAF: